Time;durP1;ratioP1;P1;durP2;ratioP2;P2;SDS_P1;SDS_P2;PMS_P1;PMS_P2;Temp;Humidity;BMP_temperature;BMP_pressure;BME280_temperature;BME280_humidity;BME280_pressure;Samples;Min_cycle;Max_cycle;Signal;HPM_P1;HPM_P2
2022/12/22 03:27:43;;;;;;;;;;;;;;;;;;5075726;28;19932;-75
2022/12/22 03:30:10;;;;;;;;;;;;;;;;;;5075588;28;19968;-75
2022/12/22 03:32:38;;;;;;;;;;;;;;;;;;5075587;28;19930;-75
2022/12/22 03:35:04;;;;;;;;;;;;;;;;;;5075855;28;19925;-75
2022/12/22 03:37:31;;;;;;;;;;;;;;;;;;5075442;28;19988;-75
2022/12/22 03:39:57;;;;;;;;;;;;;;;;;;5075721;28;19924;-75
2022/12/22 03:47:54;;;;;;;;;;;;;;;;;;5075269;28;19932;-75
2022/12/22 03:50:20;;;;;;;;;;;;;;;;;;5074800;28;19942;-75
2022/12/22 03:52:47;;;;;;;;;;;;;;;;;;5075055;28;19928;-75
2022/12/22 03:55:13;;;;;;;;;;;;;;;;;;5075291;28;20000;-75
2022/12/22 03:57:39;;;;;;;;;;;;;;;;;;5075106;28;19932;-75
2022/12/22 04:00:06;;;;;;;;;;;;;;;;;;5075107;28;20015;-75
2022/12/22 04:02:33;;;;;;;;;;;;;;;;;;5074464;28;19925;-75
2022/12/22 04:05:00;;;;;;;;;;;;;;;;;;5063051;28;19924;-75
2022/12/22 04:07:27;;;;;;;;;;;;;;;;;;5068450;28;19931;-75
2022/12/22 04:12:55;;;;;;;;;;;;;;;;;;5075417;28;19931;-74
2022/12/22 04:15:22;;;;;;;;;;;;;;;;;;5074964;28;19924;-74
2022/12/22 04:17:48;;;;;;;;;;;;;;;;;;5074184;28;19924;-74
2022/12/22 04:20:16;;;;;;;;;;;;;;;;;;5074298;28;20013;-74
2022/12/22 04:22:43;;;;;;;;;;;;;;;;;;5074093;28;20101;-74
2022/12/22 04:25:10;;;;;;;;;;;;;;;;;;5074818;28;20015;-73
2022/12/22 04:27:36;;;;;;;;;;;;;;;;;;5074408;28;20295;-73
2022/12/22 04:30:03;;;;;;;;;;;;;;;;;;5074454;28;20055;-74
2022/12/22 04:32:31;;;;;;;;;;;;;;;;;;5073950;28;20011;-73
2022/12/22 04:34:58;;;;;;;;;;;;;;;;;;5074462;28;19934;-73
2022/12/22 04:37:26;;;;;;;;;;;;;;;;;;5074423;28;19924;-73
2022/12/22 04:39:52;;;;;;;;;;;;;;;;;;5074396;28;19924;-73
2022/12/22 04:42:19;;;;;;;;;;;;;;;;;;5074380;28;19925;-73
2022/12/22 04:44:45;;;;;;;;;;;;;;;;;;5074147;28;19974;-74
2022/12/22 04:47:11;;;;;;;;;;;;;;;;;;5074469;28;19947;-74
2022/12/22 04:49:38;;;;;;;;;;;;;;;;;;5073941;28;19970;-74
2022/12/22 04:52:04;;;;;;;;;;;;;;;;;;5073863;28;19930;-74
2022/12/22 04:54:32;;;;;;;;;;;;;;;;;;5074109;28;20019;-74
2022/12/22 04:56:59;;;;;;;;;;;;;;;;;;5074332;28;20018;-75
2022/12/22 04:59:25;;;;;;;;;;;;;;;;;;5073482;28;20375;-74
2022/12/22 05:01:52;;;;;;;;;;;;;;;;;;5073294;28;19925;-74
2022/12/22 05:04:18;;;;;;;;;;;;;;;;;;5076315;22;19925;-72
2022/12/22 05:06:45;;;;;;;;;;;;;;;;;;5053330;28;20437;-73
2022/12/22 05:09:11;;;;;;;;;;;;;;;;;;5053847;28;20012;-73
2022/12/22 05:11:39;;;;;;;;;;;;;;;;;;5053312;28;20346;-73
2022/12/22 05:14:05;;;;;;;;;;;;;;;;;;5053559;28;19925;-72
2022/12/22 05:16:32;;;;;;;;;;;;;;;;;;5053582;28;19925;-72
2022/12/22 05:18:58;;;;;;;;;;;;;;;;;;5053405;28;20012;-72
2022/12/22 05:21:25;;;;;;;;;;;;;;;;;;5053485;28;19929;-72
2022/12/22 05:23:51;;;;;;;;;;;;;;;;;;5053664;28;19925;-73
2022/12/22 05:26:18;;;;;;;;;;;;;;;;;;5053669;28;20023;-72
2022/12/22 05:28:46;;;;;;;;;;;;;;;;;;5052112;28;20012;-71
2022/12/22 05:31:15;;;;;;;;;;;;;;;;;;5053913;28;19979;-72
2022/12/22 05:33:41;;;;;;;;;;;;;;;;;;5053016;28;19935;-71
2022/12/22 05:36:08;;;;;;;;;;;;;;;;;;5053366;28;20111;-74
2022/12/22 05:38:34;;;;;;;;;;;;;;;;;;5053082;28;19971;-74
2022/12/22 05:41:01;;;;;;;;;;;;;;;;;;5053128;28;20302;-74
2022/12/22 05:43:27;;;;;;;;;;;;;;;;;;5052742;28;19968;-74
2022/12/22 05:45:57;;;;;;;;;;;;;;;;;;5053246;28;19925;-74
2022/12/22 05:48:23;;;;;;;;;;;;;;;;;;5053300;28;20015;-73
2022/12/22 05:50:50;;;;;;;;;;;;;;;;;;5053139;28;19929;-73
2022/12/22 05:53:16;;;;;;;;;;;;;;;;;;5052813;28;19925;-73
2022/12/22 05:55:43;;;;;;;;;;;;;;;;;;5052681;28;20430;-73
2022/12/22 05:58:09;;;;;;;;;;;;;;;;;;5052461;28;19931;-73
2022/12/22 06:00:36;;;;;;;;;;;;;;;;;;5052410;28;20027;-72
2022/12/22 06:03:03;;;;;;;;;;;;;;;;;;5051749;28;19977;-72
2022/12/22 06:05:30;;;;;;;;;;;;;;;;;;5052661;28;20004;-72
2022/12/22 06:07:56;;;;;;;;;;;;;;;;;;5052123;28;19970;-72
2022/12/22 06:10:23;;;;;;;;;;;;;;;;;;5052499;28;19983;-73
2022/12/22 06:12:49;;;;;;;;;;;;;;;;;;5052201;28;20007;-73
2022/12/22 06:15:16;;;;;;;;;;;;;;;;;;5052398;28;19974;-72
2022/12/22 06:17:42;;;;;;;;;;;;;;;;;;5052595;28;19924;-72
2022/12/22 06:20:11;;;;;;;;;;;;;;;;;;5052770;28;20279;-72
2022/12/22 06:22:37;;;;;;;;;;;;;;;;;;5052501;28;19924;-73
2022/12/22 06:25:04;;;;;;;;;;;;;;;;;;5052267;28;20008;-73
2022/12/22 06:27:30;;;;;;;;;;;;;;;;;;5052400;28;20024;-73
2022/12/22 06:29:57;;;;;;;;;;;;;;;;;;5052179;28;19944;-73
2022/12/22 06:32:23;;;;;;;;;;;;;;;;;;5052490;28;20019;-73
2022/12/22 06:34:49;;;;;;;;;;;;;;;;;;5052228;28;19979;-75
2022/12/22 06:37:17;;;;;;;;;;;;;;;;;;5053033;28;19947;-74
2022/12/22 06:39:44;;;;;;;;;;;;;;;;;;5052347;28;19929;-74
2022/12/22 06:44:54;;;;;;;;;;;;;;;;;;5052339;28;19932;-73
2022/12/22 06:47:21;;;;;;;;;;;;;;;;;;5052136;28;19931;-73
2022/12/22 06:49:48;;;;;;;;;;;;;;;;;;5052062;28;19925;-73
2022/12/22 06:52:15;;;;;;;;;;;;;;;;;;5051886;28;20334;-73
2022/12/22 06:54:42;;;;;;;;;;;;;;;;;;5051570;28;19929;-73
2022/12/22 06:57:09;;;;;;;;;;;;;;;;;;5052046;28;20300;-73
2022/12/22 06:59:35;;;;;;;;;;;;;;;;;;5051490;28;19931;-73
2022/12/22 07:02:02;;;;;;;;;;;;;;;;;;5051726;28;19956;-73
2022/12/22 07:04:29;;;;;;;;;;;;;;;;;;5051704;28;19960;-73
2022/12/22 07:06:56;;;;;;;;;;;;;;;;;;5052026;28;19925;-73
2022/12/22 07:09:22;;;;;;;;;;;;;;;;;;5052056;28;20012;-74
2022/12/22 07:11:50;;;;;;;;;;;;;;;;;;5051371;28;20294;-74
2022/12/22 07:14:16;;;;;;;;;;;;;;;;;;5051829;28;19925;-73
2022/12/22 07:16:43;;;;;;;;;;;;;;;;;;5047321;28;19931;-73
2022/12/22 07:19:09;;;;;;;;;;;;;;;;;;5051968;28;20007;-73
2022/12/22 07:21:35;;;;;;;;;;;;;;;;;;5046237;28;20475;-73
2022/12/22 07:24:02;;;;;;;;;;;;;;;;;;5031580;28;19968;-72
2022/12/22 07:26:28;;;;;;;;;;;;;;;;;;5031845;28;20016;-74
2022/12/22 07:28:56;;;;;;;;;;;;;;;;;;5031943;28;19931;-73
2022/12/22 07:31:23;;;;;;;;;;;;;;;;;;5031811;28;19925;-73
2022/12/22 07:33:49;;;;;;;;;;;;;;;;;;5037436;28;19925;-73
2022/12/22 07:36:16;;;;;;;;;;;;;;;;;;5052042;28;19932;-73
2022/12/22 07:38:44;;;;;;;;;;;;;;;;;;5051272;28;20295;-73
2022/12/22 07:43:52;;;;;;;;;;;;;;;;;;5031076;28;19956;-74
2022/12/22 07:46:20;;;;;;;;;;;;;;;;;;5032198;28;19930;-74
2022/12/22 07:51:32;;;;;;;;;;;;;;;;;;5052803;28;19966;-74
2022/12/22 07:53:59;;;;;;;;;;;;;;;;;;5055172;28;20405;-74
2022/12/22 07:56:25;;;;;;;;;;;;;;;;;;5054781;28;20007;-73
2022/12/22 07:58:52;;;;;;;;;;;;;;;;;;5055201;28;19925;-73
2022/12/22 08:01:18;;;;;;;;;;;;;;;;;;5043758;28;19963;-73
2022/12/22 08:03:46;;;;;;;;;;;;;;;;;;5050617;28;19925;-73
2022/12/22 08:06:12;;;;;;;;;;;;;;;;;;5052301;28;19932;-73
2022/12/22 08:08:39;;;;;;;;;;;;;;;;;;5053490;28;20001;-73
2022/12/22 08:11:05;;;;;;;;;;;;;;;;;;5053337;28;19940;-74
2022/12/22 08:13:32;;;;;;;;;;;;;;;;;;5053482;28;20343;-73
2022/12/22 08:16:03;;;;;;;;;;;;;;;;;;5054704;28;20020;-74
2022/12/22 08:21:50;;;;;;;;;;;;;;;;;;5044185;28;19939;-73
2022/12/22 08:24:17;;;;;;;;;;;;;;;;;;5049391;28;19929;-73
2022/12/22 08:26:46;;;;;;;;;;;;;;;;;;5050041;28;20355;-73
2022/12/22 08:29:14;;;;;;;;;;;;;;;;;;5051448;28;19932;-73
2022/12/22 08:31:40;;;;;;;;;;;;;;;;;;5052662;28;19924;-75
2022/12/22 08:34:08;;;;;;;;;;;;;;;;;;5052846;28;19955;-73
2022/12/22 08:36:36;;;;;;;;;;;;;;;;;;5052854;28;19924;-72
2022/12/22 08:39:04;;;;;;;;;;;;;;;;;;5052401;28;19924;-73
2022/12/22 08:44:15;;;;;;;;;;;;;;;;;;5052258;28;19987;-73
2022/12/22 08:46:41;;;;;;;;;;;;;;;;;;5050804;28;19925;-73
2022/12/22 08:49:08;;;;;;;;;;;;;;;;;;5035545;28;20100;-73
2022/12/22 08:51:34;;;;;;;;;;;;;;;;;;5047081;28;19932;-73
2022/12/22 08:54:01;;;;;;;;;;;;;;;;;;5052697;28;19925;-72
2022/12/22 08:56:29;;;;;;;;;;;;;;;;;;5047634;28;20485;-73
2022/12/22 08:58:56;;;;;;;;;;;;;;;;;;5041945;28;20540;-73
2022/12/22 09:01:23;;;;;;;;;;;;;;;;;;5042624;28;20383;-73
2022/12/22 09:03:50;;;;;;;;;;;;;;;;;;5041407;28;19935;-73
2022/12/22 09:06:16;;;;;;;;;;;;;;;;;;5041230;28;20008;-74
2022/12/22 09:08:43;;;;;;;;;;;;;;;;;;5046002;28;19999;-74
2022/12/22 09:11:09;;;;;;;;;;;;;;;;;;5052084;28;19928;-73
2022/12/22 09:13:37;;;;;;;;;;;;;;;;;;5051867;28;19931;-73
2022/12/22 09:16:04;;;;;;;;;;;;;;;;;;5047523;28;20290;-73
2022/12/22 09:18:31;;;;;;;;;;;;;;;;;;5042224;28;20005;-74
2022/12/22 09:20:57;;;;;;;;;;;;;;;;;;5043389;28;19963;-74
2022/12/22 09:23:24;;;;;;;;;;;;;;;;;;5051701;28;19932;-73
2022/12/22 09:25:51;;;;;;;;;;;;;;;;;;5055101;28;20401;-77
2022/12/22 09:28:17;;;;;;;;;;;;;;;;;;5054066;28;19931;-75
2022/12/22 09:30:48;;;;;;;;;;;;;;;;;;5051787;28;19925;-73
2022/12/22 09:33:15;;;;;;;;;;;;;;;;;;5051503;28;19924;-73
2022/12/22 09:35:44;;;;;;;;;;;;;;;;;;5051510;28;19967;-73
2022/12/22 09:38:10;;;;;;;;;;;;;;;;;;5052457;28;19987;-73
2022/12/22 09:40:37;;;;;;;;;;;;;;;;;;5052708;28;20311;-73
2022/12/22 09:43:04;;;;;;;;;;;;;;;;;;5051688;28;19963;-73
2022/12/22 09:45:32;;;;;;;;;;;;;;;;;;5052910;28;20012;-71
2022/12/22 09:48:02;;;;;;;;;;;;;;;;;;5051595;28;19956;-73
2022/12/22 09:50:30;;;;;;;;;;;;;;;;;;5039368;28;19925;-75
2022/12/22 09:52:58;;;;;;;;;;;;;;;;;;5037581;28;19925;-75
2022/12/22 09:55:34;;;;;;;;;;;;;;;;;;5054981;28;19955;-77
2022/12/22 09:58:01;;;;;;;;;;;;;;;;;;5058380;28;19925;-80
2022/12/22 10:00:28;;;;;;;;;;;;;;;;;;5059237;28;19932;-74
2022/12/22 10:03:00;;;;;;;;;;;;;;;;;;5050220;28;19933;-74
2022/12/22 10:05:37;;;;;;;;;;;;;;;;;;5037572;28;19984;-74
2022/12/22 10:08:09;;;;;;;;;;;;;;;;;;5051052;28;19986;-73
2022/12/22 10:10:35;;;;;;;;;;;;;;;;;;5050835;28;19925;-73
2022/12/22 10:13:02;;;;;;;;;;;;;;;;;;5035537;28;19925;-73
2022/12/22 10:15:34;;;;;;;;;;;;;;;;;;5030178;28;20368;-73
2022/12/22 10:18:08;;;;;;;;;;;;;;;;;;5039703;28;20624;-73
2022/12/22 10:20:38;;;;;;;;;;;;;;;;;;5050579;28;19924;-73
2022/12/22 10:23:13;;;;;;;;;;;;;;;;;;5044727;28;19925;-73
2022/12/22 10:25:42;;;;;;;;;;;;;;;;;;5031175;28;19936;-73
2022/12/22 10:28:14;;;;;;;;;;;;;;;;;;5033481;28;19960;-72
2022/12/22 10:30:40;;;;;;;;;;;;;;;;;;5041107;28;19929;-73
2022/12/22 10:33:08;;;;;;;;;;;;;;;;;;5040591;28;19925;-74
2022/12/22 10:35:42;;;;;;;;;;;;;;;;;;5039074;28;19932;-72
2022/12/22 10:38:13;;;;;;;;;;;;;;;;;;5039502;28;20015;-74
2022/12/22 10:40:42;;;;;;;;;;;;;;;;;;5041241;28;20385;-73
2022/12/22 10:43:09;;;;;;;;;;;;;;;;;;5040753;28;19971;-73
2022/12/22 10:45:36;;;;;;;;;;;;;;;;;;5038991;28;20411;-73
2022/12/22 10:48:03;;;;;;;;;;;;;;;;;;5038982;28;20309;-73
2022/12/22 10:50:30;;;;;;;;;;;;;;;;;;5039139;28;19925;-74
2022/12/22 10:52:58;;;;;;;;;;;;;;;;;;5040974;28;19931;-73
2022/12/22 10:55:25;;;;;;;;;;;;;;;;;;5040109;28;19925;-73
2022/12/22 10:57:52;;;;;;;;;;;;;;;;;;5036281;28;20021;-72
2022/12/22 11:00:23;;;;;;;;;;;;;;;;;;5031915;28;20345;-73
2022/12/22 11:02:51;;;;;;;;;;;;;;;;;;5029971;28;20093;-73
2022/12/22 11:08:22;;;;;;;;;;;;;;;;;;5046105;28;19932;-73
2022/12/22 11:10:51;;;;;;;;;;;;;;;;;;5050561;28;19924;-72
2022/12/22 11:13:23;;;;;;;;;;;;;;;;;;5049986;28;19924;-72
2022/12/22 11:15:53;;;;;;;;;;;;;;;;;;5049978;28;20019;-73
2022/12/22 11:18:40;;;;;;;;;;;;;;;;;;5050047;28;19931;-73
2022/12/22 11:21:08;;;;;;;;;;;;;;;;;;5043886;28;20406;-73
2022/12/22 11:23:38;;;;;;;;;;;;;;;;;;5043735;28;19932;-73
2022/12/22 11:26:11;;;;;;;;;;;;;;;;;;5043421;28;19932;-73
2022/12/22 11:28:55;;;;;;;;;;;;;;;;;;5045652;28;20503;-73
2022/12/22 11:31:29;;;;;;;;;;;;;;;;;;5045254;28;19928;-73
2022/12/22 11:34:02;;;;;;;;;;;;;;;;;;5044115;28;20043;-73
2022/12/22 11:36:32;;;;;;;;;;;;;;;;;;5053045;28;20019;-73
2022/12/22 11:39:04;;;;;;;;;;;;;;;;;;5053210;28;20310;-73
2022/12/22 11:41:38;;;;;;;;;;;;;;;;;;5053506;28;20019;-73
2022/12/22 11:44:12;;;;;;;;;;;;;;;;;;5053352;28;20020;-73
2022/12/22 11:46:43;;;;;;;;;;;;;;;;;;5052926;28;20015;-73
2022/12/22 11:49:17;;;;;;;;;;;;;;;;;;5045522;28;20300;-74
2022/12/22 11:51:51;;;;;;;;;;;;;;;;;;5047086;28;19924;-74
2022/12/22 11:54:39;;;;;;;;;;;;;;;;;;5042182;28;20024;-72
2022/12/22 11:57:10;;;;;;;;;;;;;;;;;;5044366;28;20328;-73
2022/12/22 11:59:42;;;;;;;;;;;;;;;;;;5045768;28;19925;-72
2022/12/22 12:02:26;;;;;;;;;;;;;;;;;;5042078;28;19929;-71
2022/12/22 12:05:00;;;;;;;;;;;;;;;;;;5044073;28;19933;-72
2022/12/22 12:07:28;;;;;;;;;;;;;;;;;;5037029;28;20015;-72
2022/12/22 12:10:01;;;;;;;;;;;;;;;;;;5044699;28;20303;-72
2022/12/22 12:12:34;;;;;;;;;;;;;;;;;;5053071;28;20012;-72
2022/12/22 12:15:10;;;;;;;;;;;;;;;;;;5053886;28;19929;-72
2022/12/22 12:17:44;;;;;;;;;;;;;;;;;;5049543;28;19960;-72
2022/12/22 12:20:28;;;;;;;;;;;;;;;;;;5033756;28;19973;-73
2022/12/22 12:23:08;;;;;;;;;;;;;;;;;;5034850;28;19935;-74
2022/12/22 12:25:40;;;;;;;;;;;;;;;;;;5053134;28;20020;-72
2022/12/22 12:28:13;;;;;;;;;;;;;;;;;;5053793;28;19928;-72
2022/12/22 12:30:44;;;;;;;;;;;;;;;;;;5053699;28;19967;-74
2022/12/22 12:33:16;;;;;;;;;;;;;;;;;;5053180;28;20023;-71
2022/12/22 12:35:50;;;;;;;;;;;;;;;;;;5053460;28;19967;-72
2022/12/22 12:38:19;;;;;;;;;;;;;;;;;;5052856;28;19931;-72
2022/12/22 12:40:53;;;;;;;;;;;;;;;;;;5051273;28;19925;-73
2022/12/22 12:43:20;;;;;;;;;;;;;;;;;;5043656;28;19948;-72
2022/12/22 12:45:47;;;;;;;;;;;;;;;;;;5041478;28;19925;-73
2022/12/22 12:48:32;;;;;;;;;;;;;;;;;;5039594;28;19925;-73
2022/12/22 12:50:58;;;;;;;;;;;;;;;;;;5040657;28;19932;-72
2022/12/22 12:53:26;;;;;;;;;;;;;;;;;;5049518;28;19932;-74
2022/12/22 12:56:02;;;;;;;;;;;;;;;;;;5049578;28;19971;-72
2022/12/22 12:58:49;;;;;;;;;;;;;;;;;;5052735;28;19968;-74
2022/12/22 13:01:30;;;;;;;;;;;;;;;;;;5052156;28;19932;-74
2022/12/22 13:03:59;;;;;;;;;;;;;;;;;;5033950;28;19931;-74
2022/12/22 13:06:45;;;;;;;;;;;;;;;;;;5052340;28;20020;-72
2022/12/22 13:09:18;;;;;;;;;;;;;;;;;;5052107;28;19935;-73
2022/12/22 13:11:49;;;;;;;;;;;;;;;;;;5039471;28;19924;-73
2022/12/22 13:14:34;;;;;;;;;;;;;;;;;;5051404;28;19932;-74
2022/12/22 13:17:15;;;;;;;;;;;;;;;;;;5051174;28;20303;-74
2022/12/22 13:19:47;;;;;;;;;;;;;;;;;;5051097;28;19931;-73
2022/12/22 13:22:13;;;;;;;;;;;;;;;;;;5051534;28;19925;-73
2022/12/22 13:24:43;;;;;;;;;;;;;;;;;;5052040;28;20368;-73
2022/12/22 13:27:13;;;;;;;;;;;;;;;;;;5047651;28;19933;-72
2022/12/22 13:29:44;;;;;;;;;;;;;;;;;;5051898;28;19925;-72
2022/12/22 13:32:17;;;;;;;;;;;;;;;;;;5048623;28;20012;-72
2022/12/22 13:34:44;;;;;;;;;;;;;;;;;;5051251;28;19931;-73
2022/12/22 13:37:15;;;;;;;;;;;;;;;;;;5051695;28;20028;-73
2022/12/22 13:39:45;;;;;;;;;;;;;;;;;;5051569;28;19952;-72
2022/12/22 13:42:18;;;;;;;;;;;;;;;;;;5051237;28;20411;-72
2022/12/22 13:44:46;;;;;;;;;;;;;;;;;;5051045;28;20399;-72
2022/12/22 13:47:15;;;;;;;;;;;;;;;;;;5050673;28;19925;-72
2022/12/22 13:49:42;;;;;;;;;;;;;;;;;;5039795;28;20007;-72
2022/12/22 13:52:12;;;;;;;;;;;;;;;;;;5043099;28;19929;-72
2022/12/22 13:54:39;;;;;;;;;;;;;;;;;;5043523;28;19926;-72
2022/12/22 13:57:13;;;;;;;;;;;;;;;;;;5038211;28;19925;-78
2022/12/22 13:59:42;;;;;;;;;;;;;;;;;;5053140;28;20036;-78
2022/12/22 14:02:17;;;;;;;;;;;;;;;;;;5059168;28;19983;-74
2022/12/22 14:04:44;;;;;;;;;;;;;;;;;;5043823;28;19947;-72
2022/12/22 14:07:11;;;;;;;;;;;;;;;;;;5037007;28;20000;-72
2022/12/22 14:09:37;;;;;;;;;;;;;;;;;;5040898;28;19925;-72
2022/12/22 14:12:07;;;;;;;;;;;;;;;;;;5049795;28;20463;-73
2022/12/22 14:14:35;;;;;;;;;;;;;;;;;;5044182;28;20016;-73
2022/12/22 14:17:11;;;;;;;;;;;;;;;;;;5050726;28;19933;-74
2022/12/22 14:19:40;;;;;;;;;;;;;;;;;;5037252;28;19939;-73
2022/12/22 14:22:08;;;;;;;;;;;;;;;;;;5030440;28;19925;-73
2022/12/22 14:24:37;;;;;;;;;;;;;;;;;;5042183;28;19924;-74
2022/12/22 14:27:04;;;;;;;;;;;;;;;;;;5039750;28;20028;-74
2022/12/22 14:29:31;;;;;;;;;;;;;;;;;;5041439;28;19929;-73
2022/12/22 14:31:58;;;;;;;;;;;;;;;;;;5044367;28;19925;-73
2022/12/22 14:34:30;;;;;;;;;;;;;;;;;;5046944;28;19931;-73
2022/12/22 14:36:57;;;;;;;;;;;;;;;;;;5042267;28;19932;-74
2022/12/22 14:39:24;;;;;;;;;;;;;;;;;;5042764;28;20430;-74
2022/12/22 14:41:55;;;;;;;;;;;;;;;;;;5040666;28;19925;-75
2022/12/22 14:44:26;;;;;;;;;;;;;;;;;;5042071;28;19931;-73
2022/12/22 14:47:08;;;;;;;;;;;;;;;;;;5049335;28;19932;-73
2022/12/22 14:49:43;;;;;;;;;;;;;;;;;;5042313;28;20404;-75
2022/12/22 14:52:16;;;;;;;;;;;;;;;;;;5045606;28;19975;-74
2022/12/22 14:54:45;;;;;;;;;;;;;;;;;;5049693;28;19929;-74
2022/12/22 14:57:17;;;;;;;;;;;;;;;;;;5042178;28;19929;-73
2022/12/22 14:59:57;;;;;;;;;;;;;;;;;;5042817;28;19936;-74
2022/12/22 15:02:26;;;;;;;;;;;;;;;;;;5047879;28;19956;-74
2022/12/22 15:05:10;;;;;;;;;;;;;;;;;;5050882;28;19925;-75
2022/12/22 15:07:44;;;;;;;;;;;;;;;;;;5045435;28;19929;-73
2022/12/22 15:10:12;;;;;;;;;;;;;;;;;;5039420;28;19931;-75
2022/12/22 15:12:43;;;;;;;;;;;;;;;;;;5044650;28;19924;-73
2022/12/22 15:15:20;;;;;;;;;;;;;;;;;;5056524;28;19924;-74
2022/12/22 15:17:48;;;;;;;;;;;;;;;;;;5056084;28;19940;-73
2022/12/22 15:20:20;;;;;;;;;;;;;;;;;;5054813;28;20386;-73
2022/12/22 15:22:47;;;;;;;;;;;;;;;;;;5051678;28;21518;-74
2022/12/22 15:25:14;;;;;;;;;;;;;;;;;;5055707;28;19975;-76
2022/12/22 15:27:47;;;;;;;;;;;;;;;;;;5053828;28;20391;-74
2022/12/22 15:30:15;;;;;;;;;;;;;;;;;;5054250;28;19951;-75
2022/12/22 15:33:05;;;;;;;;;;;;;;;;;;5056273;28;19924;-75
2022/12/22 15:35:41;;;;;;;;;;;;;;;;;;5048072;28;20458;-74
2022/12/22 15:38:10;;;;;;;;;;;;;;;;;;5050559;28;19955;-74
2022/12/22 15:40:59;;;;;;;;;;;;;;;;;;5056107;28;20439;-75
2022/12/22 15:43:29;;;;;;;;;;;;;;;;;;5051751;28;19929;-73
2022/12/22 15:46:02;;;;;;;;;;;;;;;;;;5055376;28;19932;-74
2022/12/22 15:48:31;;;;;;;;;;;;;;;;;;5048586;28;19932;-75
2022/12/22 15:51:00;;;;;;;;;;;;;;;;;;5035917;28;19932;-74
2022/12/22 16:34:44;;;;;;;;;;;;;;;;;;5060143;28;19936;-76
2022/12/22 16:37:11;;;;;;;;;;;;;;;;;;5064907;28;19925;-78
2022/12/22 16:39:37;;;;;;;;;;;;;;;;;;5063596;28;19931;-77
2022/12/22 16:42:04;;;;;;;;;;;;;;;;;;5072944;28;19938;-76
2022/12/22 16:44:30;;;;;;;;;;;;;;;;;;5057138;28;19925;-79
2022/12/22 16:46:57;;;;;;;;;;;;;;;;;;5054556;28;20263;-77
2022/12/22 16:49:23;;;;;;;;;;;;;;;;;;5054390;28;19931;-77
2022/12/22 16:51:52;;;;;;;;;;;;;;;;;;5048534;28;20012;-78
2022/12/22 16:54:19;;;;;;;;;;;;;;;;;;5034129;28;20008;-77
2022/12/22 16:56:46;;;;;;;;;;;;;;;;;;5041875;28;19925;-78
2022/12/22 16:59:12;;;;;;;;;;;;;;;;;;5055966;28;19932;-78
2022/12/22 17:01:40;;;;;;;;;;;;;;;;;;5054890;28;20028;-77
2022/12/22 17:04:09;;;;;;;;;;;;;;;;;;5050820;28;19933;-77
2022/12/22 17:06:36;;;;;;;;;;;;;;;;;;5036120;28;20015;-78
2022/12/22 17:09:06;;;;;;;;;;;;;;;;;;5036285;28;20028;-77
2022/12/22 17:11:33;;;;;;;;;;;;;;;;;;5036386;28;19947;-78
2022/12/22 17:14:03;;;;;;;;;;;;;;;;;;5035982;28;19929;-77
2022/12/22 17:16:29;;;;;;;;;;;;;;;;;;5034433;28;19932;-76
2022/12/22 17:18:55;;;;;;;;;;;;;;;;;;5035197;28;20291;-77
2022/12/22 17:21:22;;;;;;;;;;;;;;;;;;5035621;28;20012;-78
2022/12/22 17:23:50;;;;;;;;;;;;;;;;;;5035886;28;20008;-77
2022/12/22 17:26:19;;;;;;;;;;;;;;;;;;5036524;28;19929;-79
2022/12/22 17:28:46;;;;;;;;;;;;;;;;;;5035819;28;19936;-79
2022/12/22 17:31:14;;;;;;;;;;;;;;;;;;5034679;28;19925;-77
2022/12/22 17:33:40;;;;;;;;;;;;;;;;;;5034019;28;19971;-77
2022/12/22 17:36:09;;;;;;;;;;;;;;;;;;5040522;28;19956;-78
2022/12/22 17:38:35;;;;;;;;;;;;;;;;;;5042725;28;19932;-77
2022/12/22 17:41:02;;;;;;;;;;;;;;;;;;5040544;28;20016;-77
2022/12/22 17:43:30;;;;;;;;;;;;;;;;;;5039927;28;19925;-78
2022/12/22 17:45:56;;;;;;;;;;;;;;;;;;5034576;28;20055;-77
2022/12/22 17:48:22;;;;;;;;;;;;;;;;;;5034176;28;19925;-77
2022/12/22 17:50:49;;;;;;;;;;;;;;;;;;5034218;28;20323;-77
2022/12/22 17:53:17;;;;;;;;;;;;;;;;;;5033503;28;19956;-77
2022/12/22 17:55:45;;;;;;;;;;;;;;;;;;5033826;28;19931;-76
2022/12/22 17:58:13;;;;;;;;;;;;;;;;;;5033404;28;20027;-76
2022/12/22 18:00:41;;;;;;;;;;;;;;;;;;5033575;28;20017;-75
2022/12/22 18:03:11;;;;;;;;;;;;;;;;;;5033021;28;20016;-77
2022/12/22 18:05:39;;;;;;;;;;;;;;;;;;5050286;28;20007;-77
2022/12/22 18:08:06;;;;;;;;;;;;;;;;;;5053442;28;19935;-77
2022/12/22 18:10:34;;;;;;;;;;;;;;;;;;5053438;28;19924;-77
2022/12/22 18:13:01;;;;;;;;;;;;;;;;;;5052724;28;20276;-77
2022/12/22 18:15:29;;;;;;;;;;;;;;;;;;5053127;28;19988;-77
2022/12/22 18:17:59;;;;;;;;;;;;;;;;;;5053165;28;19925;-77
2022/12/22 18:20:26;;;;;;;;;;;;;;;;;;5052880;28;19925;-78
2022/12/22 18:22:55;;;;;;;;;;;;;;;;;;5052698;28;20020;-77
2022/12/22 18:25:22;;;;;;;;;;;;;;;;;;5053006;28;19964;-76
2022/12/22 18:27:49;;;;;;;;;;;;;;;;;;5052722;28;20353;-77
2022/12/22 18:30:17;;;;;;;;;;;;;;;;;;5054917;28;20019;-77
2022/12/22 18:32:44;;;;;;;;;;;;;;;;;;5054935;28;19925;-77
2022/12/22 18:35:11;;;;;;;;;;;;;;;;;;5053508;28;20012;-78
2022/12/22 18:37:38;;;;;;;;;;;;;;;;;;5053362;28;19931;-76
2022/12/22 18:40:05;;;;;;;;;;;;;;;;;;5053125;28;19925;-76
2022/12/22 18:42:33;;;;;;;;;;;;;;;;;;5052666;28;20023;-76
2022/12/22 18:44:59;;;;;;;;;;;;;;;;;;5049327;28;19983;-77
2022/12/22 18:47:26;;;;;;;;;;;;;;;;;;5051068;28;19925;-77
2022/12/22 18:49:52;;;;;;;;;;;;;;;;;;5052550;28;19925;-76
2022/12/22 18:52:21;;;;;;;;;;;;;;;;;;5052679;28;19931;-78
2022/12/22 18:54:47;;;;;;;;;;;;;;;;;;5051726;28;20007;-77
2022/12/22 18:57:15;;;;;;;;;;;;;;;;;;5052254;28;19931;-77
2022/12/22 18:59:42;;;;;;;;;;;;;;;;;;5047708;28;19975;-77
2022/12/22 19:05:14;;;;;;;;;;;;;;;;;;5049562;28;20066;-76
2022/12/22 19:07:43;;;;;;;;;;;;;;;;;;5051898;28;19925;-77
2022/12/22 19:10:13;;;;;;;;;;;;;;;;;;5051973;28;20284;-77
2022/12/22 19:12:40;;;;;;;;;;;;;;;;;;5051558;28;20024;-77
2022/12/22 19:15:07;;;;;;;;;;;;;;;;;;5048521;28;20450;-76
2022/12/22 19:17:34;;;;;;;;;;;;;;;;;;5048261;28;19932;-77
2022/12/22 19:20:01;;;;;;;;;;;;;;;;;;5045548;28;20440;-77
2022/12/22 19:22:27;;;;;;;;;;;;;;;;;;5047398;28;20373;-77
2022/12/22 19:24:57;;;;;;;;;;;;;;;;;;5042551;28;19925;-78
2022/12/22 19:27:25;;;;;;;;;;;;;;;;;;5040893;28;19931;-78
2022/12/22 19:29:54;;;;;;;;;;;;;;;;;;5047439;28;20483;-78
2022/12/22 19:32:22;;;;;;;;;;;;;;;;;;5033509;28;20012;-78
2022/12/22 19:34:49;;;;;;;;;;;;;;;;;;5049588;28;19925;-78
2022/12/22 19:37:15;;;;;;;;;;;;;;;;;;5049575;28;20033;-78
2022/12/22 19:39:41;;;;;;;;;;;;;;;;;;5050270;28;20019;-77
2022/12/22 19:42:12;;;;;;;;;;;;;;;;;;5043928;28;19998;-76
2022/12/22 19:44:39;;;;;;;;;;;;;;;;;;5036987;28;19929;-78
2022/12/22 19:47:10;;;;;;;;;;;;;;;;;;5042548;28;19924;-76
2022/12/22 19:49:36;;;;;;;;;;;;;;;;;;5053423;28;20431;-76
2022/12/22 19:52:03;;;;;;;;;;;;;;;;;;5047661;28;20012;-78
2022/12/22 19:54:31;;;;;;;;;;;;;;;;;;5053439;28;19925;-78
2022/12/22 19:56:57;;;;;;;;;;;;;;;;;;5053702;28;20292;-77
2022/12/22 19:59:33;;;;;;;;;;;;;;;;;;5049929;28;19925;-78
2022/12/22 20:02:00;;;;;;;;;;;;;;;;;;5054338;28;19924;-77
2022/12/22 20:04:26;;;;;;;;;;;;;;;;;;5054780;28;20000;-78
2022/12/22 20:06:55;;;;;;;;;;;;;;;;;;5053039;28;20473;-75
2022/12/22 20:09:21;;;;;;;;;;;;;;;;;;5053327;28;19947;-77
2022/12/22 20:11:48;;;;;;;;;;;;;;;;;;5053506;28;19964;-77
2022/12/22 20:14:16;;;;;;;;;;;;;;;;;;5053597;28;20342;-76
2022/12/22 20:16:43;;;;;;;;;;;;;;;;;;5053427;28;20335;-77
2022/12/22 20:19:12;;;;;;;;;;;;;;;;;;5047491;28;20004;-78
2022/12/22 20:21:39;;;;;;;;;;;;;;;;;;5045356;28;20095;-77
2022/12/22 20:24:06;;;;;;;;;;;;;;;;;;5047020;28;20447;-77
2022/12/22 20:26:33;;;;;;;;;;;;;;;;;;5043385;28;19931;-79
2022/12/22 20:28:59;;;;;;;;;;;;;;;;;;5045567;28;19956;-78
2022/12/22 20:31:27;;;;;;;;;;;;;;;;;;5042198;28;20399;-77
2022/12/22 20:33:55;;;;;;;;;;;;;;;;;;5040943;28;20146;-76
2022/12/22 20:36:22;;;;;;;;;;;;;;;;;;5051472;28;19963;-80
2022/12/22 20:38:51;;;;;;;;;;;;;;;;;;5060078;28;19956;-84
2022/12/22 20:41:18;;;;;;;;;;;;;;;;;;5057085;28;20027;-79
2022/12/22 20:43:44;;;;;;;;;;;;;;;;;;5035399;28;20368;-79
2022/12/22 20:46:13;;;;;;;;;;;;;;;;;;5035631;28;19995;-81
2022/12/22 20:48:42;;;;;;;;;;;;;;;;;;5035319;28;19952;-79
2022/12/22 20:51:12;;;;;;;;;;;;;;;;;;5040276;28;19928;-78
2022/12/22 20:53:38;;;;;;;;;;;;;;;;;;5055631;28;20011;-77
2022/12/22 20:56:06;;;;;;;;;;;;;;;;;;5055669;28;19964;-78
2022/12/22 20:58:35;;;;;;;;;;;;;;;;;;5038811;28;20634;-79
2022/12/22 21:01:02;;;;;;;;;;;;;;;;;;5054505;28;20298;-79
2022/12/22 21:03:28;;;;;;;;;;;;;;;;;;5055838;28;19944;-85
2022/12/22 21:05:55;;;;;;;;;;;;;;;;;;5047848;28;19932;-81
2022/12/22 21:08:24;;;;;;;;;;;;;;;;;;5049573;28;19929;-78
2022/12/22 21:10:51;;;;;;;;;;;;;;;;;;5053771;28;19925;-79
2022/12/22 21:13:18;;;;;;;;;;;;;;;;;;5054604;28;20039;-77
2022/12/22 21:15:45;;;;;;;;;;;;;;;;;;5054907;28;19972;-79
2022/12/22 21:18:14;;;;;;;;;;;;;;;;;;5057532;28;20012;-77
2022/12/22 21:20:40;;;;;;;;;;;;;;;;;;5041106;28;19925;-78
2022/12/22 21:23:07;;;;;;;;;;;;;;;;;;5054406;28;20015;-78
2022/12/22 21:25:34;;;;;;;;;;;;;;;;;;5041428;28;20457;-78
2022/12/22 21:28:01;;;;;;;;;;;;;;;;;;5037257;28;19976;-78
2022/12/22 21:30:28;;;;;;;;;;;;;;;;;;5032853;28;19925;-78
2022/12/22 21:32:56;;;;;;;;;;;;;;;;;;5040143;28;19925;-79